Time;durP1;ratioP1;P1;durP2;ratioP2;P2;SDS_P1;SDS_P2;PMS_P1;PMS_P2;Temp;Humidity;BMP_temperature;BMP_pressure;BME280_temperature;BME280_humidity;BME280_pressure;Samples;Min_cycle;Max_cycle;Signal;HPM_P1;HPM_P2
2022/06/10 00:00:52;;;;;;;3.67;1.50;;;;;;;25.26;47.76;100060.94;5077216;28;20471;-84
2022/06/10 00:03:20;;;;;;;3.65;1.65;;;;;;;25.26;47.58;100063.59;5078530;28;20091;-83
2022/06/10 00:05:48;;;;;;;4.63;1.50;;;;;;;25.24;47.74;100062.88;5077436;28;20040;-83
2022/06/10 00:08:18;;;;;;;4.10;1.50;;;;;;;25.24;47.90;100062.88;5079162;28;20113;-85
2022/06/10 00:10:45;;;;;;;5.00;1.67;;;;;;;25.24;47.84;100068.22;5076753;28;20044;-86
2022/06/10 00:13:16;;;;;;;4.93;1.70;;;;;;;25.23;47.84;100061.16;5076234;28;20450;-83
2022/06/10 00:15:42;;;;;;;3.55;1.52;;;;;;;25.22;47.72;100062.13;5078057;28;20055;-84
2022/06/10 00:18:09;;;;;;;3.38;1.55;;;;;;;25.21;47.82;100053.25;5076480;28;20032;-85
2022/06/10 00:20:35;;;;;;;5.35;1.67;;;;;;;25.21;47.74;100058.59;5076456;28;20030;-83
2022/06/10 00:23:01;;;;;;;3.17;1.30;;;;;;;25.19;47.66;100056.03;5077006;28;20044;-84
2022/06/10 00:25:28;;;;;;;2.67;1.30;;;;;;;25.19;47.81;100049.84;5077071;28;20028;-83
2022/06/10 00:27:54;;;;;;;4.28;1.42;;;;;;;25.19;47.49;100050.69;5078257;28;20054;-83
2022/06/10 00:30:24;;;;;;;4.00;1.48;;;;;;;25.19;47.84;100039.16;5076521;28;20084;-85
2022/06/10 00:32:50;;;;;;;3.30;1.40;;;;;;;25.17;47.79;100031.25;5077654;28;20474;-82
2022/06/10 00:35:16;;;;;;;3.05;1.48;;;;;;;25.18;47.68;100032.94;5076915;28;20081;-83
2022/06/10 00:37:43;;;;;;;5.18;1.70;;;;;;;25.16;47.69;100034.88;5076266;28;20039;-83
2022/06/10 00:40:22;;;;;;;4.30;1.60;;;;;;;25.16;47.64;100034.88;5075699;28;20024;-83
2022/06/10 00:42:49;;;;;;;2.78;1.30;;;;;;;25.16;47.82;100024.19;5077042;28;20036;-83
2022/06/10 00:45:53;;;;;;;4.38;1.67;;;;;;;25.14;47.80;100034.13;5075832;28;20028;-84
2022/06/10 00:48:36;;;;;;;5.18;1.75;;;;;;;25.14;47.61;100026.09;5075998;28;20424;-82
2022/06/10 00:51:09;;;;;;;3.75;1.17;;;;;;;25.13;47.68;100035.09;5075288;28;20039;-84
2022/06/10 00:53:35;;;;;;;3.50;1.67;;;;;;;25.12;47.82;100027.19;5075906;28;20458;-85
2022/06/10 00:56:07;;;;;;;3.00;1.40;;;;;;;25.13;47.72;100027.06;5078371;28;20461;-83
2022/06/10 00:58:58;;;;;;;3.20;1.23;;;;;;;25.12;47.66;100022.69;5075830;28;20039;-84
2022/06/10 01:01:25;;;;;;;5.13;1.77;;;;;;;25.10;47.78;100018.44;5075822;28;20025;-83
2022/06/10 01:03:52;;;;;;;3.20;1.23;;;;;;;25.09;47.77;100012.25;5076069;28;20086;-84
2022/06/10 01:06:19;;;;;;;3.10;1.40;;;;;;;25.09;47.68;100020.25;5075837;28;20038;-84
2022/06/10 01:08:46;;;;;;;2.28;0.95;;;;;;;25.09;47.57;100012.25;5075360;28;20106;-82
2022/06/10 01:11:32;;;;;;;4.57;1.75;;;;;;;25.09;47.64;100012.25;5076218;28;20020;-84
2022/06/10 01:14:10;;;;;;;;;;;;;;;25.07;47.85;100008.81;5077595;28;20043;-84
2022/06/10 01:16:50;;;;;;;2.78;1.33;;;;;;;25.05;47.73;100008.91;5075989;28;19916;-84
2022/06/10 01:19:47;;;;;;;2.47;1.20;;;;;;;25.06;47.69;100002.63;5075851;28;20025;-84
2022/06/10 01:22:31;;;;;;;4.40;1.40;;;;;;;25.07;47.75;100003.47;5075807;28;20039;-84
2022/06/10 01:28:55;;;;;;;3.53;1.50;;;;;;;25.07;47.72;99992.78;5077108;28;20081;-85
2022/06/10 01:31:33;;;;;;;3.70;1.52;;;;;;;25.06;47.80;99999.09;5076248;28;20048;-84
2022/06/10 01:34:22;;;;;;;3.22;1.23;;;;;;;25.04;47.76;99993.03;5075886;28;20351;-83
2022/06/10 01:37:09;;;;;;;3.05;1.52;;;;;;;25.03;47.65;99994.81;5078997;28;20024;-84
2022/06/10 01:39:47;;;;;;;2.08;1.00;;;;;;;25.05;47.58;100002.75;5079096;28;20021;-83
2022/06/10 01:42:12;;;;;;;4.57;1.55;;;;;;;25.03;47.71;100002.00;5078036;28;20025;-84
2022/06/10 01:44:52;;;;;;;3.75;1.30;;;;;;;25.03;47.56;99999.34;5074474;28;20024;-84
2022/06/10 01:47:24;;;;;;;2.78;1.02;;;;;;;25.02;47.65;100001.13;5075962;28;20059;-84
2022/06/10 01:50:12;;;;;;;1.75;1.08;;;;;;;25.00;47.78;99996.88;5074682;28;20024;-84
2022/06/10 01:52:43;;;;;;;3.10;1.30;;;;;;;25.01;47.82;100001.22;5075930;28;20024;-84
2022/06/10 01:55:19;;;;;;;2.88;1.23;;;;;;;24.99;47.78;99995.16;5080084;28;20078;-85
2022/06/10 01:58:11;;;;;;;4.30;1.17;;;;;;;25.01;47.68;99993.22;5080997;28;20074;-85
2022/06/10 02:00:41;;;;;;;3.30;1.27;;;;;;;25.02;47.82;99993.13;5083622;28;20092;-85
2022/06/10 02:03:16;;;;;;;3.63;1.20;;;;;;;24.99;47.57;99989.81;5083633;28;20425;-86
2022/06/10 02:05:49;;;;;;;1.70;0.97;;;;;;;24.99;47.67;99984.47;5083879;28;20059;-85
2022/06/10 02:08:32;;;;;;;4.18;1.60;;;;;;;24.97;47.69;99994.38;5082851;28;20058;-87
2022/06/10 02:11:13;;;;;;;3.10;1.20;;;;;;;24.97;47.65;99991.72;5084778;28;20044;-86
2022/06/10 02:13:44;;;;;;;3.85;1.73;;;;;;;24.94;47.62;99998.16;5083482;28;20125;-87
2022/06/10 02:16:17;;;;;;;2.22;0.90;;;;;;;24.94;47.64;99999.00;5080098;28;20029;-85
2022/06/10 02:18:49;;;;;;;2.78;1.55;;;;;;;24.94;47.57;99996.31;5074588;28;20453;-84
2022/06/10 02:21:42;;;;;;;3.80;1.17;;;;;;;24.92;47.70;99995.59;5074590;28;20112;-84
2022/06/10 02:24:37;;;;;;;2.55;1.10;;;;;;;24.92;47.67;99994.72;5074247;28;20447;-85
2022/06/10 02:27:32;;;;;;;3.70;1.20;;;;;;;24.93;47.82;99991.09;5072135;28;20032;-82
2022/06/10 02:30:12;;;;;;;2.53;1.20;;;;;;;24.93;47.64;100002.63;5072991;28;20097;-83
2022/06/10 02:32:40;;;;;;;2.25;1.17;;;;;;;24.92;47.70;99992.91;5074731;28;20110;-83
2022/06/10 02:35:11;;;;;;;2.83;1.20;;;;;;;24.93;47.39;99991.94;5074321;28;20029;-83
2022/06/10 02:38:09;;;;;;;3.15;1.25;;;;;;;24.92;47.58;99995.59;5074447;28;20466;-83
2022/06/10 02:40:44;;;;;;;2.35;1.00;;;;;;;24.90;47.78;100000.16;5071348;28;20029;-84
2022/06/10 02:43:33;;;;;;;2.58;1.10;;;;;;;24.88;47.60;100002.09;5074113;28;20024;-85
2022/06/10 02:46:08;;;;;;;2.33;1.23;;;;;;;24.86;47.77;99996.00;5075122;28;20025;-83
2022/06/10 02:48:49;;;;;;;2.97;1.20;;;;;;;24.86;47.85;99996.00;5074065;28;20024;-84
2022/06/10 02:51:16;;;;;;;2.33;1.05;;;;;;;24.85;47.93;99998.78;5073771;28;20025;-84
2022/06/10 02:53:42;;;;;;;2.80;1.20;;;;;;;24.84;47.66;99997.09;5073977;28;20127;-84
2022/06/10 02:56:24;;;;;;;2.88;1.30;;;;;;;24.85;47.66;99999.66;5075980;28;20060;-85
2022/06/10 03:02:05;;;;;;;2.65;1.20;;;;;;;24.83;47.81;100001.56;5075291;28;20036;-84
2022/06/10 03:04:53;;;;;;;3.58;1.40;;;;;;;24.82;47.48;99994.50;5075848;28;20035;-83
2022/06/10 03:07:50;;;;;;;3.53;1.08;;;;;;;24.84;47.65;99984.56;5078833;28;20024;-83
2022/06/10 03:10:21;;;;;;;;;;;;;;;24.82;47.81;99999.84;5078022;28;20467;-82
2022/06/10 03:12:49;;;;;;;3.00;1.50;;;;;;;24.82;47.69;99994.50;5077711;28;19927;-84
2022/06/10 03:15:39;;;;;;;3.45;1.30;;;;;;;24.81;47.80;99998.16;5079490;28;20529;-84
2022/06/10 03:18:34;;;;;;;2.33;1.10;;;;;;;24.78;47.90;99998.31;5076982;28;20028;-82
2022/06/10 03:21:18;;;;;;;2.88;1.30;;;;;;;24.79;47.76;100000.88;5077096;28;20055;-83
2022/06/10 03:24:18;;;;;;;2.25;1.00;;;;;;;24.80;47.76;100001.75;5078401;28;20086;-86
2022/06/10 03:26:52;;;;;;;1.98;1.00;;;;;;;24.77;47.70;99999.28;5078486;28;20425;-83
2022/06/10 03:29:32;;;;;;;2.55;1.00;;;;;;;24.76;47.82;100005.56;5078671;28;20097;-86
2022/06/10 03:32:07;;;;;;;2.03;1.20;;;;;;;24.76;47.78;100002.91;5077027;28;20020;-84
2022/06/10 03:34:46;;;;;;;2.47;1.10;;;;;;;24.75;47.61;100001.19;5078170;28;20056;-85
2022/06/10 03:37:14;;;;;;;2.45;1.10;;;;;;;24.74;47.65;99996.84;5080818;28;20025;-83
2022/06/10 03:39:41;;;;;;;2.60;1.20;;;;;;;24.75;47.79;100003.88;5077332;28;20028;-84
2022/06/10 03:42:14;;;;;;;1.88;1.13;;;;;;;24.74;47.81;100012.84;5077476;28;20031;-83
2022/06/10 03:44:42;;;;;;;2.28;1.20;;;;;;;24.71;47.64;100007.69;5077469;28;20109;-83
2022/06/10 03:47:14;;;;;;;2.28;1.00;;;;;;;24.70;47.65;100006.00;5078498;28;20025;-84
2022/06/10 03:49:47;;;;;;;2.03;1.10;;;;;;;24.70;47.78;100011.34;5078784;28;20088;-84
2022/06/10 03:52:23;;;;;;;2.15;1.10;;;;;;;24.70;47.74;100014.00;5078612;28;20047;-83
2022/06/10 03:54:49;;;;;;;2.63;1.20;;;;;;;24.68;47.95;100019.44;5081064;28;20450;-84
2022/06/10 03:57:17;;;;;;;2.30;1.13;;;;;;;24.66;48.01;100022.19;5080136;28;20070;-85
2022/06/10 03:59:43;;;;;;;2.25;1.00;;;;;;;24.66;47.95;100016.88;5079578;28;20531;-84
2022/06/10 04:02:09;;;;;;;1.33;0.82;;;;;;;24.64;47.79;100013.47;5079467;28;20028;-83
2022/06/10 04:04:34;;;;;;;3.10;1.15;;;;;;;24.64;48.05;100016.13;5079811;28;20125;-84
2022/06/10 04:07:00;;;;;;;2.75;1.27;;;;;;;24.63;47.80;100017.09;5081896;28;20021;-85
2022/06/10 04:09:26;;;;;;;1.77;1.00;;;;;;;24.63;47.91;100018.88;5081443;28;20044;-85
2022/06/10 04:11:52;;;;;;;2.63;1.05;;;;;;;24.62;47.81;100022.53;5082219;28;20036;-84
2022/06/10 04:14:17;;;;;;;2.58;1.13;;;;;;;24.61;47.88;100024.34;5083023;28;20366;-87
2022/06/10 04:16:43;;;;;;;1.42;1.02;;;;;;;24.62;47.87;100026.06;5083882;28;20084;-85
2022/06/10 04:19:11;;;;;;;4.05;1.27;;;;;;;24.61;48.10;100024.34;5085357;28;20024;-87
2022/06/10 04:21:37;;;;;;;2.50;1.08;;;;;;;24.60;48.05;100011.94;5085793;28;20016;-85
2022/06/10 04:24:03;;;;;;;2.80;0.90;;;;;;;24.60;47.69;100019.94;5086229;28;20028;-85
2022/06/10 04:26:29;;;;;;;2.28;1.20;;;;;;;24.59;47.87;100015.59;5086845;28;20025;-86
2022/06/10 04:28:55;;;;;;;2.25;1.08;;;;;;;24.60;47.79;100014.63;5087329;28;20476;-87
2022/06/10 04:31:21;;;;;;;2.53;1.13;;;;;;;24.58;47.71;100016.53;5086224;28;20097;-86
2022/06/10 04:33:47;;;;;;;3.38;1.25;;;;;;;24.58;47.81;100008.53;5087386;28;20035;-86
2022/06/10 04:36:17;;;;;;;3.65;1.05;;;;;;;24.59;47.79;100010.25;5085945;28;20036;-86
2022/06/10 04:38:44;;;;;;;2.08;1.15;;;;;;;24.59;47.97;100009.41;5082463;28;20033;-86
2022/06/10 04:41:11;;;;;;;3.08;1.23;;;;;;;24.58;47.74;100011.22;5076243;28;20327;-83
2022/06/10 04:43:37;;;;;;;3.25;1.17;;;;;;;24.58;47.55;100013.00;5077287;28;20024;-84
2022/06/10 04:46:06;;;;;;;1.90;1.00;;;;;;;24.55;47.92;100014.06;5077367;28;20028;-84
2022/06/10 04:48:32;;;;;;;3.85;1.45;;;;;;;24.55;47.89;100008.72;5075550;28;20366;-86
2022/06/10 04:50:58;;;;;;;2.88;1.30;;;;;;;24.54;47.78;100007.03;5075529;28;20052;-85
2022/06/10 04:53:24;;;;;;;2.53;1.23;;;;;;;24.54;47.89;100009.69;5075510;28;20035;-84
2022/06/10 04:55:51;;;;;;;1.48;1.00;;;;;;;24.52;47.94;100008.97;5077533;28;20024;-85
2022/06/10 04:58:17;;;;;;;2.40;1.02;;;;;;;24.51;47.96;100015.25;5077088;28;20032;-83
2022/06/10 05:00:47;;;;;;;5.25;1.10;;;;;;;24.49;47.93;100014.47;5075771;28;20031;-85
2022/06/10 05:03:13;;;;;;;3.33;1.20;;;;;;;24.48;47.86;100008.31;5075369;28;20025;-84
2022/06/10 05:05:39;;;;;;;2.33;1.10;;;;;;;24.49;47.82;100004.69;5075587;28;20519;-84
2022/06/10 05:08:11;;;;;;;2.67;1.38;;;;;;;24.48;48.08;100012.78;5075550;28;20028;-85
2022/06/10 05:10:37;;;;;;;2.22;1.02;;;;;;;24.47;47.88;100011.06;5074967;28;20490;-82
2022/06/10 05:13:03;;;;;;;2.13;1.02;;;;;;;24.45;48.03;100005.00;5075443;28;20016;-82
2022/06/10 05:15:29;;;;;;;1.92;1.10;;;;;;;24.46;47.98;100009.38;5076346;28;20081;-83
2022/06/10 05:17:57;;;;;;;2.65;1.20;;;;;;;24.46;47.84;100004.88;5075698;28;20024;-83
2022/06/10 05:20:28;;;;;;;1.52;0.90;;;;;;;24.45;47.97;100002.34;5076945;28;20096;-84
2022/06/10 05:22:54;;;;;;;2.50;1.33;;;;;;;24.44;48.17;100003.28;5075464;28;20637;-85
2022/06/10 05:25:20;;;;;;;4.03;1.10;;;;;;;24.43;48.18;100006.91;5075045;28;20020;-84
2022/06/10 05:27:47;;;;;;;2.28;1.05;;;;;;;24.41;48.02;100007.03;5074185;28;20021;-82
2022/06/10 05:30:17;;;;;;;2.78;1.02;;;;;;;24.39;47.89;100009.78;5075352;28;20024;-85
2022/06/10 05:32:43;;;;;;;2.53;1.13;;;;;;;24.39;48.11;100011.59;5075348;28;20056;-82
2022/06/10 05:35:08;;;;;;;2.38;1.20;;;;;;;24.40;48.06;100011.50;5077190;28;20043;-84
2022/06/10 05:37:34;;;;;;;1.70;1.10;;;;;;;24.38;48.30;100015.22;5075867;28;20199;-83
2022/06/10 05:40:00;;;;;;;3.03;1.00;;;;;;;24.37;48.08;100014.34;5075980;28;20016;-83
2022/06/10 05:42:29;;;;;;;2.65;1.08;;;;;;;24.38;48.14;100013.41;5075726;28;20017;-84
2022/06/10 05:44:55;;;;;;;2.25;1.05;;;;;;;24.38;47.96;100012.56;5075634;28;20055;-82
2022/06/10 05:47:28;;;;;;;2.65;1.02;;;;;;;24.37;48.39;100022.34;5076104;28;20036;-84
2022/06/10 05:49:58;;;;;;;1.70;1.10;;;;;;;24.39;48.06;100020.47;5075571;28;20044;-83
2022/06/10 05:52:25;;;;;;;3.33;1.20;;;;;;;24.40;48.07;100022.16;5076627;28;20085;-81
2022/06/10 05:54:54;;;;;;;3.78;1.10;;;;;;;24.40;48.11;100027.50;5076476;28;20035;-82
2022/06/10 05:57:20;;;;;;;2.38;1.30;;;;;;;24.42;47.85;100019.41;5076925;28;20059;-84
2022/06/10 05:59:52;;;;;;;2.83;1.20;;;;;;;24.43;48.04;100031.78;5075769;28;20426;-83
2022/06/10 06:02:17;;;;;;;4.60;1.10;;;;;;;24.45;47.81;100018.34;5075249;28;20024;-83
2022/06/10 06:04:43;;;;;;;2.22;1.15;;;;;;;24.43;47.89;100020.22;5075939;28;20094;-83
2022/06/10 06:07:14;;;;;;;3.00;1.13;;;;;;;24.45;47.88;100023.66;5075764;28;20093;-83
2022/06/10 06:09:40;;;;;;;3.20;1.25;;;;;;;24.46;47.87;100022.72;5075494;28;20072;-84
2022/06/10 06:12:06;;;;;;;4.53;1.35;;;;;;;24.47;47.76;100019.94;5075982;28;20021;-84
2022/06/10 06:14:32;;;;;;;2.45;1.10;;;;;;;24.48;47.88;100018.97;5078271;28;20024;-82
2022/06/10 06:17:00;;;;;;;2.30;1.05;;;;;;;24.52;47.60;100022.28;5077991;28;20033;-82
2022/06/10 06:19:28;;;;;;;3.65;1.33;;;;;;;24.50;47.69;100033.06;5075910;28;20055;-85
2022/06/10 06:21:54;;;;;;;2.53;1.20;;;;;;;24.51;47.85;100028.59;5074194;28;20062;-84
2022/06/10 06:24:20;;;;;;;2.58;1.10;;;;;;;24.52;47.41;100030.28;5074532;28;20480;-84
2022/06/10 06:26:46;;;;;;;2.33;1.02;;;;;;;24.55;47.85;100027.41;5075366;28;20099;-85
2022/06/10 06:29:12;;;;;;;2.35;1.05;;;;;;;24.56;47.53;100030.94;5075474;28;20067;-86
2022/06/10 06:31:38;;;;;;;2.83;1.48;;;;;;;24.56;47.62;100037.16;5074745;28;20052;-84
2022/06/10 06:34:04;;;;;;;2.33;1.33;;;;;;;24.55;47.94;100035.41;5076061;28;20125;-85
2022/06/10 06:36:45;;;;;;;3.80;1.15;;;;;;;24.56;47.65;100031.81;5078009;28;20121;-85
2022/06/10 06:39:16;;;;;;;2.83;1.23;;;;;;;24.57;47.51;100032.66;5081484;28;20040;-85
2022/06/10 06:41:42;;;;;;;2.25;1.00;;;;;;;24.57;47.55;100038.84;5082646;28;20078;-86
2022/06/10 06:44:08;;;;;;;2.38;1.10;;;;;;;24.58;47.86;100039.69;5084272;28;20020;-85
2022/06/10 06:46:37;;;;;;;2.03;1.10;;;;;;;24.58;47.62;100034.34;5084508;28;20035;-86
2022/06/10 06:49:05;;;;;;;2.38;1.20;;;;;;;24.61;47.57;100044.84;5083530;28;20047;-86
2022/06/10 06:51:30;;;;;;;2.20;1.17;;;;;;;24.59;47.43;100042.25;5082503;28;20029;-85
2022/06/10 06:53:57;;;;;;;2.10;0.95;;;;;;;24.57;47.41;100054.00;5083441;28;20470;-86
2022/06/10 06:56:23;;;;;;;2.30;1.10;;;;;;;24.59;47.87;100055.59;5087229;28;20025;-87
2022/06/10 06:58:49;;;;;;;1.75;0.90;;;;;;;24.60;47.67;100059.97;5085891;28;20021;-86
2022/06/10 07:01:14;;;;;;;3.22;1.02;;;;;;;24.60;47.38;100057.31;5083060;28;20029;-87
2022/06/10 07:03:40;;;;;;;2.22;1.08;;;;;;;24.61;47.45;100051.03;5080165;28;20033;-84
2022/06/10 07:06:06;;;;;;;2.40;1.10;;;;;;;24.61;47.57;100056.38;5078009;28;20445;-84
2022/06/10 07:08:32;;;;;;;2.88;1.08;;;;;;;24.60;47.63;100053.81;5078034;28;20054;-85
2022/06/10 07:10:58;;;;;;;3.22;1.60;;;;;;;24.60;47.56;100059.97;5077753;28;20032;-86
2022/06/10 07:13:25;;;;;;;1.45;0.70;;;;;;;24.63;47.45;100049.09;5077940;28;20024;-84
2022/06/10 07:15:51;;;;;;;1.75;0.90;;;;;;;24.62;47.54;100047.41;5077851;28;20358;-85
2022/06/10 07:18:17;;;;;;;2.15;0.95;;;;;;;24.62;47.72;100052.75;5078630;28;20028;-83
2022/06/10 07:20:44;;;;;;;3.58;1.17;;;;;;;24.65;47.54;100059.69;5078791;28;20021;-83
2022/06/10 07:23:10;;;;;;;3.42;1.40;;;;;;;24.65;47.48;100051.69;5077487;28;20032;-83
2022/06/10 07:25:37;;;;;;;1.85;1.00;;;;;;;24.65;47.55;100049.84;5077624;28;20020;-84
2022/06/10 07:28:03;;;;;;;3.03;1.13;;;;;;;24.66;47.41;100051.56;5077909;28;20036;-84
2022/06/10 07:30:31;;;;;;;1.48;0.82;;;;;;;24.72;47.54;100052.09;5077336;28;20028;-85
2022/06/10 07:32:57;;;;;;;3.45;1.15;;;;;;;24.71;47.23;100053.94;5077657;28;20028;-85
2022/06/10 07:35:23;;;;;;;1.83;0.88;;;;;;;24.75;47.24;100051.91;5079472;28;20142;-83
2022/06/10 07:37:50;;;;;;;2.00;1.00;;;;;;;24.73;47.24;100060.00;5077693;28;20035;-85
2022/06/10 07:43:04;;;;;;;2.88;1.23;;;;;;;24.79;47.20;100056.09;5078062;28;20480;-82
2022/06/10 07:45:30;;;;;;;1.73;0.88;;;;;;;24.81;47.26;100056.84;5077528;28;20062;-83
2022/06/10 07:47:56;;;;;;;2.33;0.90;;;;;;;24.82;47.28;100053.22;5077810;28;20035;-83
2022/06/10 07:50:23;;;;;;;3.10;0.90;;;;;;;24.83;47.22;100062.09;5076167;28;20029;-83
2022/06/10 07:52:49;;;;;;;1.50;0.90;;;;;;;24.84;47.19;100061.97;5077866;28;20039;-85
2022/06/10 07:55:16;;;;;;;1.60;0.88;;;;;;;24.86;47.26;100065.41;5076902;28;20458;-87
2022/06/10 07:57:42;;;;;;;1.55;1.00;;;;;;;24.88;47.19;100058.13;5076777;28;20361;-85
2022/06/10 08:00:10;;;;;;;2.25;0.95;;;;;;;24.91;46.92;100057.94;5077172;28;20123;-84
2022/06/10 08:02:37;;;;;;;1.92;0.98;;;;;;;24.92;47.04;100062.31;5077079;28;20036;-83
2022/06/10 08:05:04;;;;;;;1.80;0.90;;;;;;;24.94;46.97;100063.06;5078240;28;20103;-84
2022/06/10 08:07:29;;;;;;;1.63;1.17;;;;;;;24.97;47.29;100055.78;5076831;28;20028;-83
2022/06/10 08:09:55;;;;;;;1.95;0.90;;;;;;;24.97;47.16;100062.00;5076403;28;20052;-84
2022/06/10 08:12:21;;;;;;;2.03;1.20;;;;;;;24.98;46.82;100053.03;5077399;28;20094;-84
2022/06/10 08:14:47;;;;;;;2.17;1.00;;;;;;;25.02;47.13;100059.88;5076787;28;20036;-84
2022/06/10 08:17:13;;;;;;;2.58;0.80;;;;;;;25.03;46.80;100050.06;5078825;28;20515;-83
2022/06/10 08:19:40;;;;;;;2.13;1.00;;;;;;;25.05;47.06;100050.78;5076968;28;20032;-85
2022/06/10 08:24:52;;;;;;;2.05;0.90;;;;;;;25.10;46.59;100046.00;5078772;28;20059;-85
2022/06/10 08:27:18;;;;;;;2.50;0.75;;;;;;;25.13;46.75;100050.28;5078048;28;20351;-83
2022/06/10 08:29:44;;;;;;;1.85;0.80;;;;;;;25.14;46.80;100042.13;5076934;28;20028;-85
2022/06/10 08:32:09;;;;;;;1.23;0.80;;;;;;;25.17;46.90;100041.94;5077444;28;20046;-84
2022/06/10 08:34:36;;;;;;;2.35;0.88;;;;;;;25.18;46.80;100043.63;5077120;28;20039;-83
2022/06/10 08:37:02;;;;;;;2.22;0.90;;;;;;;25.20;46.86;100036.38;5077292;28;20028;-82
2022/06/10 08:39:28;;;;;;;2.53;1.00;;;;;;;25.23;46.83;100039.78;5078505;28;20039;-82
2022/06/10 08:42:06;;;;;;;1.45;0.77;;;;;;;25.24;46.68;100031.69;5077284;28;20029;-83
2022/06/10 08:44:51;;;;;;;2.22;0.90;;;;;;;25.26;46.87;100039.56;5077456;28;20185;-84
2022/06/10 08:47:29;;;;;;;1.40;0.77;;;;;;;25.29;46.60;100042.03;5076513;28;20028;-84
2022/06/10 08:50:01;;;;;;;2.42;0.90;;;;;;;25.31;46.55;100040.09;5077837;28;20442;-84
2022/06/10 08:52:48;;;;;;;1.20;0.80;;;;;;;25.32;46.43;100039.13;5078038;28;20527;-83
2022/06/10 08:55:39;;;;;;;3.53;1.00;;;;;;;25.34;46.53;100043.41;5078720;28;20036;-83
2022/06/10 08:58:16;;;;;;;2.58;0.90;;;;;;;25.37;46.46;100046.84;5083445;28;20028;-86
2022/06/10 09:00:44;;;;;;;2.30;1.08;;;;;;;25.37;46.52;100053.03;5080594;28;20025;-83
2022/06/10 09:03:18;;;;;;;2.08;0.80;;;;;;;25.40;46.40;100047.47;5082998;28;20123;-84
2022/06/10 09:05:57;;;;;;;1.67;0.82;;;;;;;25.42;46.29;100045.53;5083493;28;20128;-85
2022/06/10 09:08:27;;;;;;;3.30;1.17;;;;;;;25.43;46.55;100052.59;5084588;28;20052;-86
2022/06/10 09:11:06;;;;;;;1.52;0.60;;;;;;;25.45;46.20;100057.81;5084229;28;20094;-86
2022/06/10 09:13:39;;;;;;;1.70;0.82;;;;;;;25.47;46.58;100043.41;5085023;28;20021;-85
2022/06/10 09:16:10;;;;;;;1.70;0.80;;;;;;;25.48;46.56;100045.09;5086280;28;20032;-85
2022/06/10 09:19:05;;;;;;;1.42;0.80;;;;;;;25.50;46.29;100039.66;5087594;28;20020;-84
2022/06/10 09:21:44;;;;;;;1.85;0.70;;;;;;;25.52;46.43;100047.56;5087580;28;20346;-86
2022/06/10 09:24:20;;;;;;;1.52;0.55;;;;;;;25.54;46.53;100037.66;5084832;28;20028;-86
2022/06/10 09:27:05;;;;;;;1.70;0.70;;;;;;;25.55;46.41;100034.00;5079904;28;20470;-83
2022/06/10 09:29:32;;;;;;;1.83;0.80;;;;;;;25.55;46.53;100034.88;5074860;28;20025;-84
2022/06/10 09:32:30;;;;;;;1.33;0.70;;;;;;;25.58;46.26;100025.78;5074861;28;20040;-82
2022/06/10 09:35:11;;;;;;;1.67;0.75;;;;;;;25.61;46.64;100038.91;5052604;28;20036;-85
2022/06/10 09:38:13;;;;;;;2.10;0.75;;;;;;;25.63;45.91;100028.13;5077146;28;20021;-83
2022/06/10 09:41:00;;;;;;;1.02;0.55;;;;;;;25.64;46.37;100028.00;5074525;28;20028;-83
2022/06/10 09:43:33;;;;;;;0.88;0.60;;;;;;;25.65;46.43;100024.38;5074746;28;20116;-83
2022/06/10 09:46:10;;;;;;;1.10;0.70;;;;;;;25.68;46.20;100029.50;5075792;28;20024;-82
2022/06/10 09:48:35;;;;;;;2.20;0.80;;;;;;;25.69;46.42;100033.88;5074748;28;20058;-82
2022/06/10 09:51:10;;;;;;;1.63;0.57;;;;;;;25.71;46.19;100023.94;5075111;28;20402;-83
2022/06/10 09:54:03;;;;;;;1.63;0.77;;;;;;;25.72;46.32;100025.63;5075041;28;20029;-82
2022/06/10 09:56:44;;;;;;;1.60;0.70;;;;;;;25.74;46.37;100026.38;5074313;28;20477;-84
2022/06/10 09:59:24;;;;;;;1.65;0.70;;;;;;;25.77;46.11;100021.78;5075106;28;20141;-85
2022/06/10 10:02:09;;;;;;;1.80;0.63;;;;;;;25.78;45.97;100013.66;5074516;28;20036;-84
2022/06/10 10:04:53;;;;;;;0.98;0.57;;;;;;;25.80;46.22;100005.53;5074407;28;20032;-84
2022/06/10 10:07:47;;;;;;;1.02;0.52;;;;;;;25.83;45.89;100010.63;5074284;28;20024;-84
2022/06/10 10:10:29;;;;;;;1.95;0.75;;;;;;;25.85;46.30;100016.72;5074318;28;20055;-81
2022/06/10 10:13:13;;;;;;;1.58;0.70;;;;;;;25.85;46.05;100008.69;5074888;28;20032;-81
2022/06/10 10:15:48;;;;;;;2.67;0.80;;;;;;;25.88;46.43;100008.47;5075638;28;20036;-84
2022/06/10 10:18:20;;;;;;;3.40;0.90;;;;;;;25.89;46.58;100002.16;5076758;28;20040;-83
2022/06/10 10:20:48;;;;;;;3.95;0.90;;;;;;;25.92;46.45;99998.41;5075120;28;20119;-82
2022/06/10 10:23:28;;;;;;;2.20;1.30;;;;;;;25.93;46.45;99995.63;5076418;28;20370;-83
2022/06/10 10:25:53;;;;;;;4.97;1.70;;;;;;;25.95;46.12;100001.72;5076525;28;20108;-84
2022/06/10 10:28:30;;;;;;;2.88;1.00;;;;;;;25.98;46.22;99998.81;5075934;28;20109;-82
2022/06/10 10:31:08;;;;;;;4.15;1.48;;;;;;;26.00;46.27;99994.19;5076162;28;20465;-83
2022/06/10 10:33:34;;;;;;;2.95;1.13;;;;;;;26.02;46.33;99994.09;5075192;28;20058;-83
2022/06/10 10:35:59;;;;;;;4.65;1.20;;;;;;;26.04;46.40;99996.66;5077306;28;20036;-82
2022/06/10 10:38:34;;;;;;;4.47;1.55;;;;;;;26.06;46.45;99986.69;5076838;28;20035;-83
2022/06/10 10:41:14;;;;;;;6.20;1.85;;;;;;;26.06;46.51;99989.38;5075798;28;20102;-82
2022/06/10 10:43:44;;;;;;;5.35;1.58;;;;;;;26.08;46.60;99996.31;5073702;28;20039;-82
2022/06/10 10:46:35;;;;;;;3.45;1.35;;;;;;;26.08;46.43;99993.63;5073871;28;20370;-83
2022/06/10 10:49:20;;;;;;;3.72;1.20;;;;;;;26.11;46.71;99992.56;5068282;28;20037;-85
2022/06/10 10:51:49;;;;;;;3.30;1.10;;;;;;;26.12;46.82;99999.59;5073512;28;20028;-86
2022/06/10 10:54:33;;;;;;;3.75;1.20;;;;;;;26.13;46.29;99987.94;5073842;28;20038;-86
2022/06/10 10:57:01;;;;;;;4.50;1.30;;;;;;;26.14;46.50;99992.31;5075887;28;20043;-84
2022/06/10 10:59:36;;;;;;;7.38;1.58;;;;;;;26.16;46.53;99994.88;5074972;28;20024;-85
2022/06/10 11:02:34;;;;;;;3.20;1.30;;;;;;;26.17;46.33;99997.44;5073930;28;20097;-84
2022/06/10 11:05:17;;;;;;;6.38;2.08;;;;;;;26.19;46.41;99998.19;5073642;28;20098;-85
2022/06/10 11:07:45;;;;;;;8.25;1.90;;;;;;;26.19;47.05;99990.16;5074821;28;20342;-82
2022/06/10 11:10:23;;;;;;;9.18;2.10;;;;;;;26.20;46.49;99980.31;5073813;28;20055;-82
2022/06/10 11:12:49;;;;;;;6.63;1.73;;;;;;;26.22;46.49;99979.25;5074818;28;20112;-83
2022/06/10 11:15:27;;;;;;;5.03;1.80;;;;;;;26.23;46.54;99980.97;5075161;28;20064;-82
2022/06/10 11:17:55;;;;;;;5.38;1.77;;;;;;;26.25;46.40;99984.38;5075564;28;20461;-82
2022/06/10 11:20:36;;;;;;;8.07;1.73;;;;;;;26.27;46.58;99989.63;5075975;28;20028;-82
2022/06/10 11:23:18;;;;;;;4.88;1.85;;;;;;;26.28;46.26;99977.94;5077725;28;20032;-83
2022/06/10 11:25:45;;;;;;;4.68;1.48;;;;;;;26.31;46.72;99971.50;5079124;28;20094;-82
2022/06/10 11:28:23;;;;;;;5.60;1.40;;;;;;;26.31;46.18;99966.16;5081190;28;20067;-85
2022/06/10 11:30:49;;;;;;;5.82;1.52;;;;;;;26.34;46.88;99965.94;5081680;28;20029;-83
2022/06/10 11:33:27;;;;;;;3.42;1.27;;;;;;;26.35;46.52;99956.94;5084676;28;20028;-83
2022/06/10 11:36:07;;;;;;;3.75;1.38;;;;;;;26.37;46.84;99954.97;5084047;28;20028;-85
2022/06/10 11:38:37;;;;;;;4.30;1.25;;;;;;;26.38;46.70;99945.97;5086813;28;20028;-84
2022/06/10 11:41:15;;;;;;;6.47;1.30;;;;;;;26.40;46.75;99950.25;5090077;28;20025;-85
2022/06/10 11:43:51;;;;;;;4.13;1.40;;;;;;;26.43;46.51;99953.69;5087995;28;20024;-85
2022/06/10 11:46:38;;;;;;;4.25;1.65;;;;;;;26.44;46.38;99956.22;5089897;28;20028;-85
2022/06/10 11:49:22;;;;;;;3.67;1.45;;;;;;;26.46;46.24;99954.28;5087105;28;20033;-81
2022/06/10 11:51:55;;;;;;;3.85;1.42;;;;;;;26.47;46.82;99949.78;5079378;28;20070;-81
2022/06/10 11:54:40;;;;;;;4.10;1.33;;;;;;;26.49;46.40;99954.03;5079772;28;20103;-82
2022/06/10 12:00:21;;;;;;;3.23;1.20;;;;;;;26.54;46.31;99945.69;5080156;28;20089;-82
2022/06/10 12:03:19;;;;;;;2.58;1.00;;;;;;;26.54;46.53;99965.25;5080902;28;20063;-81
2022/06/10 12:05:49;;;;;;;4.47;1.35;;;;;;;26.57;46.80;99940.06;5078964;28;20032;-83
2022/06/10 12:08:33;;;;;;;3.33;1.20;;;;;;;26.59;46.39;99948.00;5079941;28;20028;-83